createdAt,value
2022-10-31T06:02:46.422Z,0.25
2022-10-31T06:07:55.316Z,0.45
2022-10-31T06:12:59.671Z,0.45
2022-10-31T06:23:10.635Z,0.30
2022-10-31T06:28:14.555Z,0.50
2022-10-31T06:33:19.895Z,0.77
2022-10-31T06:38:25.221Z,0.60
2022-10-31T06:43:28.747Z,0.52
2022-10-31T06:48:36.440Z,0.20
2022-10-31T06:53:44.722Z,0.40
2022-10-31T06:58:48.351Z,0.40
2022-10-31T07:03:54.258Z,0.30
2022-10-31T07:08:57.876Z,0.70
2022-10-31T07:14:03.419Z,0.43
2022-10-31T07:19:08.579Z,0.90
2022-10-31T07:24:12.169Z,0.70
2022-10-31T07:29:22.702Z,1.05
2022-10-31T07:34:28.322Z,1.23
2022-10-31T07:39:34.827Z,1.02
2022-10-31T07:44:38.593Z,0.97
2022-10-31T07:49:46.491Z,0.73
2022-10-31T07:54:58.185Z,1.02
2022-10-31T08:00:01.842Z,0.80
2022-10-31T08:10:15.719Z,0.65
2022-10-31T08:15:19.234Z,1.20
2022-10-31T08:20:24.505Z,0.88
2022-10-31T08:25:33.734Z,1.02
2022-10-31T08:30:42.336Z,1.12
2022-10-31T08:35:51.780Z,0.57
2022-10-31T08:40:59.435Z,0.73
2022-10-31T08:46:03.934Z,0.97
2022-10-31T08:51:10.949Z,1.00
2022-10-31T08:56:14.654Z,1.25
2022-10-31T09:01:18.475Z,0.70
2022-10-31T09:06:23.669Z,1.00
2022-10-31T09:11:27.377Z,0.70
2022-10-31T09:16:33.632Z,0.60
2022-10-31T09:21:38.566Z,0.80
2022-10-31T09:26:42.200Z,0.85
2022-10-31T09:31:46.234Z,0.70
2022-10-31T09:36:51.227Z,0.55
2022-10-31T09:42:19.582Z,0.93
2022-10-31T09:47:33.912Z,0.90
2022-10-31T09:52:48.259Z,1.23
2022-10-31T09:57:54.999Z,0.80
2022-10-31T10:03:03.376Z,0.75
2022-10-31T10:08:14.128Z,0.98
2022-10-31T10:13:35.171Z,1.25
2022-10-31T10:18:47.520Z,1.65
2022-10-31T10:24:03.617Z,0.85
2022-10-31T10:29:23.622Z,2.12
2022-10-31T10:34:32.401Z,1.77
2022-10-31T10:39:44.155Z,1.33
2022-10-31T10:45:08.328Z,1.62
2022-10-31T10:50:16.859Z,1.73
2022-10-31T10:55:33.884Z,1.75
2022-10-31T11:00:41.205Z,1.83
2022-10-31T11:05:49.305Z,2.10
2022-10-31T11:11:01.133Z,1.95
2022-10-31T11:16:08.369Z,1.58
2022-10-31T11:21:23.504Z,1.90
2022-10-31T11:26:28.494Z,2.42
2022-10-31T11:31:33.885Z,1.95
2022-10-31T11:36:41.222Z,2.10
2022-10-31T11:41:47.484Z,2.85
2022-10-31T11:46:54.069Z,2.67
2022-10-31T11:52:00.097Z,2.62
2022-10-31T11:57:05.297Z,2.53
2022-10-31T12:02:21.018Z,2.30
2022-10-31T12:07:25.316Z,2.67
2022-10-31T12:12:54.521Z,2.40
2022-10-31T12:18:18.316Z,1.98
2022-10-31T12:23:30.952Z,2.50
2022-10-31T12:28:52.650Z,2.22
2022-10-31T12:34:12.970Z,2.35
2022-10-31T12:39:27.077Z,2.85
2022-10-31T12:44:59.777Z,1.95
2022-10-31T12:50:17.118Z,2.70
2022-10-31T12:55:39.116Z,2.25
2022-10-31T13:00:48.474Z,2.17
2022-10-31T13:05:57.161Z,2.40
2022-10-31T13:11:08.781Z,2.08
2022-10-31T13:16:17.296Z,2.55
2022-10-31T13:21:24.857Z,2.65
2022-10-31T13:26:39.009Z,2.00
2022-10-31T13:31:44.829Z,2.47
2022-10-31T13:36:55.594Z,2.65
2022-10-31T13:42:05.648Z,2.85
2022-10-31T13:47:26.103Z,2.17
2022-10-31T13:52:30.521Z,3.22
2022-10-31T13:57:37.206Z,2.37
2022-10-31T14:02:49.629Z,2.10
2022-10-31T14:07:54.575Z,2.50
2022-10-31T14:13:07.420Z,2.80
2022-10-31T14:18:34.215Z,3.35
2022-10-31T14:23:41.257Z,2.42
2022-10-31T14:28:45.110Z,2.17
2022-10-31T14:33:50.022Z,2.90
2022-10-31T14:38:59.771Z,2.22
2022-10-31T14:44:34.678Z,1.70
2022-10-31T14:49:53.167Z,2.20
2022-10-31T14:55:00.895Z,1.75
2022-10-31T15:00:07.910Z,1.20
2022-10-31T15:05:14.696Z,0.60
2022-10-31T15:10:23.873Z,0.68
2022-10-31T15:15:28.579Z,1.05
2022-10-31T15:20:40.628Z,0.90
2022-10-31T15:25:44.453Z,1.17
2022-10-31T15:30:58.640Z,0.50
2022-10-31T15:36:04.457Z,0.37
2022-10-31T15:41:25.260Z,1.30
2022-10-31T15:46:29.358Z,1.98
2022-10-31T15:51:38.325Z,1.35
2022-10-31T15:56:45.493Z,0.77
2022-10-31T16:02:03.147Z,0.70
2022-10-31T16:07:22.732Z,0.88
2022-10-31T16:12:36.719Z,1.35
2022-10-31T16:17:45.855Z,0.95
2022-10-31T16:22:53.663Z,1.48
2022-10-31T16:28:01.599Z,1.40
2022-10-31T16:33:05.425Z,0.45
2022-10-31T16:38:10.607Z,1.10
2022-10-31T16:43:17.983Z,0.50
2022-10-31T16:48:24.242Z,1.20
2022-10-31T16:53:29.238Z,0.88
2022-10-31T16:58:36.445Z,0.77
2022-10-31T17:03:40.050Z,0.70
2022-10-31T17:08:45.015Z,1.00
2022-10-31T17:13:48.759Z,0.82
2022-10-31T17:18:52.406Z,0.80
2022-10-31T17:23:57.727Z,1.20
2022-10-31T17:29:03.473Z,0.60
2022-10-31T17:34:08.699Z,0.70
2022-10-31T17:39:13.689Z,0.43
2022-10-31T17:44:17.233Z,0.60
2022-10-31T17:49:21.731Z,0.93
2022-10-31T17:59:30.284Z,0.73
2022-10-31T18:04:33.848Z,0.90
2022-10-31T18:09:38.852Z,1.02
2022-10-31T18:14:47.285Z,0.70
2022-10-31T18:19:51.948Z,0.52
2022-10-31T18:25:01.618Z,0.75
2022-10-31T18:30:06.632Z,0.15
2022-10-31T18:40:15.007Z,0.47
2022-10-31T18:45:32.485Z,0.65
2022-10-31T18:50:42.271Z,0.93
2022-10-31T18:55:49.203Z,0.47
2022-10-31T19:00:53.844Z,0.60
2022-10-31T19:05:57.806Z,0.10
2022-10-31T19:11:07.137Z,0.50
2022-10-31T19:16:12.906Z,0.80
2022-10-31T19:21:18.276Z,0.65
2022-10-31T19:26:23.553Z,0.65
2022-10-31T19:31:27.167Z,0.30
2022-10-31T19:36:30.802Z,0.40
2022-10-31T19:41:35.794Z,0.20
2022-10-31T19:46:59.735Z,0.57
2022-10-31T19:52:03.407Z,0.40
2022-10-31T19:57:08.334Z,0.47
2022-10-31T20:02:19.655Z,0.30
2022-10-31T20:07:23.254Z,0.55
2022-10-31T20:12:28.262Z,0.60
2022-10-31T20:17:31.929Z,0.52
2022-10-31T20:22:35.849Z,0.30
2022-10-31T20:27:40.874Z,0.60
2022-10-31T20:32:49.783Z,0.70
2022-10-31T20:37:53.648Z,0.55
2022-10-31T20:42:58.889Z,0.35
2022-10-31T20:48:03.102Z,0.75
2022-10-31T20:53:07.098Z,0.80
2022-10-31T20:58:12.035Z,0.57
2022-10-31T21:03:15.604Z,0.82
2022-10-31T21:08:19.294Z,1.23
2022-10-31T21:13:24.568Z,0.73
2022-10-31T21:18:28.161Z,0.40
2022-10-31T21:23:31.871Z,0.20
2022-10-31T21:28:38.102Z,1.13
2022-10-31T21:33:42.096Z,0.65
2022-10-31T21:38:45.686Z,0.55
2022-10-31T21:43:54.264Z,0.77
2022-10-31T21:48:58.944Z,0.70
2022-10-31T21:59:24.903Z,0.30
2022-10-31T22:04:29.027Z,0.20
2022-10-31T22:09:32.593Z,0.20
2022-10-31T22:14:37.575Z,0.52
2022-10-31T22:19:41.321Z,0.20
2022-10-31T22:24:44.833Z,0.70
2022-10-31T22:29:54.122Z,0.47
2022-10-31T22:35:00.057Z,0.45
2022-10-31T22:40:03.659Z,0.50
2022-10-31T22:45:09.940Z,1.10
2022-10-31T22:50:13.552Z,0.82
2022-10-31T22:55:17.407Z,0.20
2022-10-31T23:00:22.825Z,0.37
2022-10-31T23:05:26.441Z,0.47
2022-10-31T23:10:33.354Z,0.28
2022-10-31T23:15:39.598Z,0.30
2022-10-31T23:20:43.130Z,0.40
2022-10-31T23:26:04.503Z,0.40
